Time;durP1;ratioP1;P1;durP2;ratioP2;P2;SDS_P1;SDS_P2;PMS_P1;PMS_P2;Temp;Humidity;BMP_temperature;BMP_pressure;BME280_temperature;BME280_humidity;BME280_pressure;Samples;Min_cycle;Max_cycle;Signal;HPM_P1;HPM_P2
2022/09/13 00:04:23;;;;;;;19.40;11.75;;;;;;;22.36;44.96;100965.63;16211391;19;128525;-68
2022/09/13 00:09:44;;;;;;;16.65;11.43;;;;;;;22.36;44.54;100955.31;16214846;19;128493;-68
2022/09/13 00:15:07;;;;;;;19.48;11.25;;;;;;;22.35;45.01;100953.66;16211906;19;129186;-69
2022/09/13 00:20:29;;;;;;;19.15;11.65;;;;;;;22.37;44.91;100951.44;16211333;19;130348;-68
2022/09/13 00:25:51;;;;;;;16.33;11.32;;;;;;;22.35;44.77;100942.50;16212014;19;128254;-67
2022/09/13 00:31:13;;;;;;;17.40;11.43;;;;;;;22.34;44.87;100929.66;16190822;19;129910;-68
2022/09/13 00:36:35;;;;;;;20.27;11.60;;;;;;;22.35;44.91;100936.94;16132684;19;129525;-68
2022/09/13 00:41:56;;;;;;;19.60;11.52;;;;;;;22.34;44.88;100924.09;16133854;19;130300;-69
2022/09/13 00:47:24;;;;;;;16.50;11.05;;;;;;;22.33;45.01;100929.94;16134049;19;130061;-68
2022/09/13 00:52:54;;;;;;;16.42;10.65;;;;;;;22.33;44.94;100908.47;16132616;19;129496;-68
2022/09/13 00:58:21;;;;;;;16.83;10.43;;;;;;;22.33;45.05;100888.16;16133868;19;130857;-69
2022/09/13 01:03:45;;;;;;;18.02;10.13;;;;;;;22.31;45.08;100896.75;16133798;19;129687;-67
2022/09/13 01:09:07;;;;;;;17.88;10.20;;;;;;;22.30;45.02;100889.50;16132651;19;129612;-69
2022/09/13 01:14:30;;;;;;;18.40;11.07;;;;;;;22.31;45.04;100890.38;16167412;19;129457;-71
2022/09/13 01:19:52;;;;;;;15.90;10.07;;;;;;;22.30;44.68;100885.91;16203641;19;128761;-68
2022/09/13 01:25:20;;;;;;;16.45;9.90;;;;;;;22.28;44.89;100866.66;16168998;19;130244;-73
2022/09/13 01:31:06;;;;;;;17.60;10.57;;;;;;;22.27;45.02;100868.59;16138057;19;129400;-72
2022/09/13 01:36:43;;;;;;;14.02;10.10;;;;;;;22.30;44.63;100866.38;16132917;19;129727;-73
2022/09/13 01:42:26;;;;;;;17.25;9.98;;;;;;;22.27;44.87;100851.88;16132898;19;130048;-72
2022/09/13 01:47:52;;;;;;;14.45;9.40;;;;;;;22.28;44.83;100855.50;16130091;19;130002;-75
2022/09/13 01:53:31;;;;;;;14.43;8.90;;;;;;;22.27;45.19;100862.22;16129981;19;130815;-73
2022/09/13 01:59:01;;;;;;;17.13;10.60;;;;;;;22.26;45.15;100861.34;16128640;19;129362;-76
2022/09/13 02:04:28;;;;;;;14.18;9.10;;;;;;;22.26;44.76;100877.25;16133730;19;129754;-68
2022/09/13 02:09:57;;;;;;;16.83;9.80;;;;;;;22.26;44.90;100877.25;16137279;19;129360;-68
2022/09/13 02:15:33;;;;;;;16.90;9.60;;;;;;;22.25;44.89;100889.50;16136296;19;129374;-68
2022/09/13 02:20:59;;;;;;;13.27;8.75;;;;;;;22.23;45.26;100891.72;16134867;19;130638;-68
2022/09/13 02:26:24;;;;;;;14.30;9.30;;;;;;;22.22;45.14;100895.63;16131947;19;130982;-69
2022/09/13 02:32:02;;;;;;;14.17;9.33;;;;;;;22.23;45.03;100888.94;16140741;19;129102;-69
2022/09/13 02:37:27;;;;;;;14.25;9.45;;;;;;;22.20;45.23;100889.44;16138114;19;129936;-67
2022/09/13 02:43:00;;;;;;;12.90;9.05;;;;;;;22.21;44.94;100897.56;16140514;19;129801;-67
2022/09/13 02:48:48;;;;;;;12.10;8.32;;;;;;;22.21;44.69;100903.16;16138965;19;130694;-67
2022/09/13 02:54:35;;;;;;;12.38;9.00;;;;;;;22.20;45.09;100897.81;16139152;19;129293;-68
2022/09/13 02:59:57;;;;;;;12.13;8.30;;;;;;;22.19;45.14;100901.69;16140479;19;130634;-67
2022/09/13 03:05:19;;;;;;;13.77;9.00;;;;;;;22.20;44.86;100911.72;16139677;19;129192;-67
2022/09/13 03:11:23;;;;;;;13.18;8.13;;;;;;;22.21;44.93;100908.72;16141479;19;133848;-67
2022/09/13 03:16:45;;;;;;;17.60;9.15;;;;;;;22.20;45.03;100906.16;16139781;19;129453;-67
2022/09/13 03:22:07;;;;;;;12.90;8.90;;;;;;;22.19;44.96;100910.91;16141161;19;129757;-68
2022/09/13 03:28:01;;;;;;;12.75;8.18;;;;;;;22.22;45.15;100912.34;16141775;19;128809;-67
2022/09/13 03:33:31;;;;;;;12.38;8.30;;;;;;;22.20;44.91;100915.38;16136969;19;129939;-67
2022/09/13 03:39:02;;;;;;;11.45;8.18;;;;;;;22.20;45.15;100900.59;16138188;19;129251;-67
2022/09/13 03:44:26;;;;;;;12.85;8.52;;;;;;;22.19;44.86;100898.91;16137667;19;130612;-68
2022/09/13 03:49:50;;;;;;;11.68;8.02;;;;;;;22.19;44.83;100901.69;16137904;19;130945;-66
2022/09/13 03:55:11;;;;;;;11.45;8.10;;;;;;;22.18;45.09;100897.22;16135142;19;130016;-65
2022/09/13 04:00:33;;;;;;;11.07;6.80;;;;;;;22.17;45.05;100896.41;16134807;19;129242;-67
2022/09/13 04:05:55;;;;;;;10.90;7.90;;;;;;;22.17;45.16;100893.63;16133244;19;130004;-67
2022/09/13 04:11:16;;;;;;;11.65;7.95;;;;;;;22.18;44.76;100880.50;16131827;19;130448;-67
2022/09/13 04:16:38;;;;;;;10.80;7.55;;;;;;;22.17;44.73;100890.81;16132171;19;129321;-68
2022/09/13 04:22:00;;;;;;;11.88;8.00;;;;;;;22.17;44.81;100896.41;16134010;19;129823;-67
2022/09/13 04:27:22;;;;;;;10.73;7.18;;;;;;;22.17;45.00;100901.13;16134474;19;129426;-67
2022/09/13 04:32:44;;;;;;;10.88;7.57;;;;;;;22.14;44.72;100894.16;16132145;19;129225;-67
2022/09/13 04:38:07;;;;;;;11.52;7.70;;;;;;;22.15;44.95;100897.78;16127691;19;130508;-67
2022/09/13 04:43:29;;;;;;;10.35;7.07;;;;;;;22.15;44.96;100897.78;16130016;19;129587;-66
2022/09/13 04:48:51;;;;;;;11.25;6.88;;;;;;;22.15;44.74;100893.03;16126369;19;130285;-67
2022/09/13 04:54:13;;;;;;;11.82;7.68;;;;;;;22.15;45.00;100892.22;16130707;19;129618;-67
2022/09/13 04:59:36;;;;;;;9.60;7.20;;;;;;;22.14;45.09;100896.94;16130655;19;129639;-67
2022/09/13 05:04:58;;;;;;;11.32;7.75;;;;;;;22.13;44.97;100901.69;16135887;19;129378;-67
2022/09/13 05:10:20;;;;;;;14.30;7.32;;;;;;;22.15;45.12;100908.94;16128306;19;129130;-67
2022/09/13 05:15:41;;;;;;;9.35;7.07;;;;;;;22.12;44.77;100916.72;16128664;19;129617;-67
2022/09/13 05:21:04;;;;;;;22.50;7.85;;;;;;;22.12;45.12;100913.94;16128171;19;129474;-68
2022/09/13 05:26:30;;;;;;;17.02;7.85;;;;;;;22.11;45.22;100920.63;16130552;19;129522;-68
2022/09/13 05:31:51;;;;;;;20.45;7.40;;;;;;;22.11;45.28;100931.75;16124725;19;130300;-68
2022/09/13 05:37:13;;;;;;;11.30;6.10;;;;;;;22.09;45.21;100931.19;16123054;19;129617;-68
2022/09/13 05:42:35;;;;;;;11.23;6.25;;;;;;;22.09;45.25;100931.19;16128871;19;129423;-70
2022/09/13 05:47:56;;;;;;;12.23;6.28;;;;;;;22.09;44.85;100916.44;16130044;19;129580;-68
2022/09/13 05:53:18;;;;;;;13.40;6.57;;;;;;;22.09;45.15;100911.69;16125472;19;130003;-68
2022/09/13 05:58:42;;;;;;;21.05;6.10;;;;;;;22.11;45.45;100930.91;16130422;19;129521;-69
2022/09/13 06:04:04;;;;;;;9.48;5.82;;;;;;;22.11;44.97;100928.97;16141480;19;129571;-68
2022/09/13 06:09:25;;;;;;;17.90;5.93;;;;;;;22.10;45.05;100924.50;16143718;19;129704;-69
2022/09/13 06:14:47;;;;;;;20.67;5.88;;;;;;;22.12;45.46;100927.00;16142066;19;129552;-68
2022/09/13 06:20:09;;;;;;;20.08;6.05;;;;;;;22.12;45.51;100927.88;16140557;19;129597;-66
2022/09/13 06:25:31;;;;;;;13.75;5.03;;;;;;;22.13;45.42;100939.84;16138940;19;129870;-66
2022/09/13 06:31:02;;;;;;;17.55;5.70;;;;;;;22.15;45.52;100947.94;16140760;19;129854;-65
2022/09/13 06:36:25;;;;;;;17.05;5.47;;;;;;;22.14;45.42;100933.16;16135061;19;130249;-66
2022/09/13 06:41:47;;;;;;;17.38;5.25;;;;;;;22.15;45.83;100934.00;16139652;19;129205;-67
2022/09/13 06:47:08;;;;;;;11.98;4.93;;;;;;;22.15;45.55;100925.66;16138070;19;129155;-67
2022/09/13 06:52:30;;;;;;;10.95;4.40;;;;;;;22.13;45.36;100929.53;16136273;19;129641;-67
2022/09/13 06:57:52;;;;;;;17.88;4.75;;;;;;;22.15;45.54;100925.66;16139445;19;129417;-67
2022/09/13 07:03:13;;;;;;;11.57;4.60;;;;;;;22.16;45.58;100932.88;16138786;19;129160;-66
2022/09/13 07:08:36;;;;;;;7.07;4.13;;;;;;;22.17;45.67;100934.56;16138388;19;130393;-67
2022/09/13 07:13:58;;;;;;;9.25;4.20;;;;;;;22.16;45.44;100927.31;16134669;19;129240;-67
2022/09/13 07:19:28;;;;;;;11.35;4.00;;;;;;;22.17;45.43;100934.56;16135219;19;129621;-67
2022/09/13 07:24:49;;;;;;;9.15;4.13;;;;;;;22.16;45.50;100944.88;16134235;19;129198;-66
2022/09/13 07:30:11;;;;;;;11.18;3.92;;;;;;;22.16;45.45;100936.53;16132151;19;129387;-66
2022/09/13 07:35:33;;;;;;;8.77;3.70;;;;;;;22.17;45.67;100934.56;16135449;19;129288;-65
2022/09/13 07:40:58;;;;;;;7.07;3.83;;;;;;;22.18;45.13;100936.22;16135206;19;129513;-66
2022/09/13 07:46:21;;;;;;;;;;;;;;;22.17;45.52;100934.56;16134347;19;129521;-65
2022/09/13 07:51:44;;;;;;;6.82;3.72;;;;;;;22.20;45.56;100939.59;16135117;19;129768;-65
2022/09/13 07:57:05;;;;;;;11.30;4.40;;;;;;;22.18;45.67;100944.59;16132031;19;129439;-66
2022/09/13 08:02:27;;;;;;;9.45;3.75;;;;;;;22.18;45.46;100944.59;16134288;19;128990;-66
2022/09/13 08:07:49;;;;;;;9.02;4.00;;;;;;;22.20;45.76;100956.31;16134226;19;129663;-66
2022/09/13 08:13:11;;;;;;;7.47;3.67;;;;;;;22.20;45.67;100956.31;16136167;19;129545;-65
2022/09/13 08:18:32;;;;;;;7.40;3.88;;;;;;;22.21;45.45;100949.66;16135014;19;130192;-66
2022/09/13 08:23:58;;;;;;;5.60;3.65;;;;;;;22.23;45.67;100950.25;16132649;19;129810;-65
2022/09/13 08:29:20;;;;;;;8.27;4.07;;;;;;;22.26;45.59;100949.72;16134861;19;129290;-66
2022/09/13 08:34:41;;;;;;;8.40;3.85;;;;;;;22.32;45.60;100958.94;16134598;19;129856;-66
2022/09/13 08:40:04;;;;;;;6.03;3.63;;;;;;;22.35;45.55;100959.22;16132132;19;130450;-66
2022/09/13 08:45:26;;;;;;;6.43;3.72;;;;;;;22.41;45.35;100962.88;16132871;19;129196;-66
2022/09/13 08:50:50;;;;;;;9.15;4.15;;;;;;;22.46;45.59;100954.53;16133971;19;129622;-66
2022/09/13 08:56:26;;;;;;;6.07;3.60;;;;;;;22.50;45.46;100952.03;16130125;19;130506;-66
2022/09/13 09:02:00;;;;;;;3.38;2.90;;;;;;;22.52;45.36;100947.88;16132675;19;129285;-66
2022/09/13 09:07:26;;;;;;;10.73;3.67;;;;;;;22.55;45.44;100954.84;16130835;19;129557;-66
2022/09/13 09:13:04;;;;;;;5.18;3.17;;;;;;;22.61;45.73;100950.13;16130345;19;130255;-66
2022/09/13 09:18:31;;;;;;;8.38;3.70;;;;;;;22.59;45.42;100944.81;16129466;19;129259;-66
2022/09/13 09:23:54;;;;;;;3.75;3.05;;;;;;;22.61;45.37;100956.56;16119328;19;129980;-65
2022/09/13 09:29:17;;;;;;;7.85;4.13;;;;;;;22.63;45.81;100942.31;16120101;19;131327;-65
2022/09/13 09:35:02;;;;;;;3.83;3.00;;;;;;;22.65;45.48;100935.34;16128557;19;129602;-66
2022/09/13 09:40:24;;;;;;;5.10;3.08;;;;;;;22.64;45.45;100921.69;16138865;19;129862;-66
2022/09/13 09:45:53;;;;;;;7.13;3.47;;;;;;;22.64;45.52;100922.56;16146089;19;131416;-65
2022/09/13 09:51:18;;;;;;;7.20;3.65;;;;;;;22.65;45.29;100928.94;16140374;19;130087;-66
2022/09/13 09:56:52;;;;;;;4.60;2.95;;;;;;;22.68;45.63;100929.22;16140036;19;129175;-66
2022/09/13 10:02:18;;;;;;;5.70;2.95;;;;;;;22.68;45.43;100920.88;16137838;19;129458;-66
2022/09/13 10:07:40;;;;;;;4.38;3.22;;;;;;;22.69;45.42;100913.34;16140886;19;129834;-66
2022/09/13 10:13:06;;;;;;;5.40;2.80;;;;;;;22.70;45.83;100910.28;16136586;19;129596;-66
2022/09/13 10:18:35;;;;;;;5.63;2.88;;;;;;;22.70;45.62;100901.91;16136718;19;129463;-65
2022/09/13 10:24:17;;;;;;;5.60;3.00;;;;;;;22.71;45.52;100897.16;16140488;19;129519;-66
2022/09/13 10:29:47;;;;;;;4.25;2.47;;;;;;;22.68;45.87;100890.19;16138812;19;130067;-66
2022/09/13 10:35:18;;;;;;;6.93;3.20;;;;;;;22.69;45.77;100889.09;16134666;19;129015;-66
2022/09/13 10:40:47;;;;;;;10.45;2.83;;;;;;;22.71;45.55;100888.78;16138006;19;129612;-66
2022/09/13 10:46:13;;;;;;;6.53;2.90;;;;;;;22.73;45.86;100872.63;16132211;19;129769;-66
2022/09/13 10:51:37;;;;;;;3.80;2.58;;;;;;;22.72;46.01;100880.19;16134543;19;129349;-66
2022/09/13 10:56:59;;;;;;;7.72;2.88;;;;;;;22.71;45.96;100875.72;16136553;19;129449;-66
2022/09/13 11:03:02;;;;;;;6.00;3.30;;;;;;;22.72;45.93;100880.19;16138258;19;133943;-66
2022/09/13 11:08:45;;;;;;;3.53;2.42;;;;;;;22.74;45.84;100883.53;16131849;19;130402;-66
2022/09/13 11:14:25;;;;;;;4.40;2.85;;;;;;;22.73;45.98;100884.63;16134899;19;129540;-67
2022/09/13 11:20:12;;;;;;;5.10;2.85;;;;;;;22.74;45.67;100894.69;16134204;19;128999;-66
2022/09/13 11:25:42;;;;;;;7.20;2.95;;;;;;;22.72;45.91;100896.91;16137177;19;129496;-66
2022/09/13 11:31:16;;;;;;;7.18;2.75;;;;;;;22.72;45.91;100899.69;16137633;19;129609;-66
2022/09/13 11:36:40;;;;;;;3.05;2.22;;;;;;;22.72;46.14;100896.91;16134603;19;129414;-66
2022/09/13 11:42:27;;;;;;;3.90;2.37;;;;;;;22.73;45.53;100900.53;16134265;19;129410;-66
2022/09/13 11:48:23;;;;;;;4.18;2.42;;;;;;;22.72;45.58;100887.69;16132252;19;129383;-66
2022/09/13 11:53:57;;;;;;;3.80;2.23;;;;;;;22.71;45.96;100886.88;16132635;19;130296;-66
2022/09/13 11:59:21;;;;;;;5.65;2.63;;;;;;;22.74;45.79;100877.94;16129583;19;129389;-66
2022/09/13 12:05:15;;;;;;;5.00;2.37;;;;;;;22.76;45.70;100882.41;16133518;19;129522;-66
2022/09/13 12:10:48;;;;;;;3.92;2.60;;;;;;;22.76;45.83;100874.06;16131203;19;129553;-66
2022/09/13 12:16:17;;;;;;;3.35;2.45;;;;;;;22.78;45.77;100871.81;16128541;19;129339;-66
2022/09/13 12:21:43;;;;;;;4.40;2.20;;;;;;;22.79;45.77;100860.38;16127336;19;130003;-67
2022/09/13 12:27:13;;;;;;;4.55;2.17;;;;;;;22.80;45.77;100864.84;16128386;19;130236;-66
2022/09/13 12:32:37;;;;;;;4.10;2.13;;;;;;;22.81;45.47;100868.47;16129636;19;130501;-66
2022/09/13 12:38:34;;;;;;;4.23;2.40;;;;;;;22.82;45.80;100861.78;16128867;19;129608;-67
2022/09/13 12:44:08;;;;;;;2.83;2.30;;;;;;;22.81;45.47;100865.69;16128975;19;130318;-67
2022/09/13 12:49:44;;;;;;;2.97;2.05;;;;;;;22.82;45.88;100862.63;16127110;19;129529;-67
2022/09/13 12:55:44;;;;;;;3.15;2.20;;;;;;;22.81;45.38;100855.38;16126020;19;129336;-66
2022/09/13 13:01:21;;;;;;;4.40;2.15;;;;;;;22.81;45.48;100851.72;16126965;19;129792;-66
2022/09/13 13:06:50;;;;;;;3.47;2.07;;;;;;;22.80;45.83;100850.06;16128667;19;129671;-66
2022/09/13 13:12:28;;;;;;;2.92;1.80;;;;;;;22.82;45.57;100845.91;16126887;19;129501;-66
2022/09/13 13:17:52;;;;;;;4.53;1.95;;;;;;;22.80;45.93;100847.25;16127287;19;129295;-66
2022/09/13 13:23:29;;;;;;;4.10;2.03;;;;;;;22.81;45.94;100854.53;16124204;19;129500;-66
2022/09/13 13:29:17;;;;;;;4.30;2.15;;;;;;;22.81;45.54;100849.78;16125538;19;129449;-66
2022/09/13 13:34:49;;;;;;;3.78;2.13;;;;;;;22.81;45.80;100854.53;16126036;19;129368;-66
2022/09/13 13:40:24;;;;;;;3.15;1.95;;;;;;;22.79;46.06;100862.31;16126295;19;128935;-66
2022/09/13 13:46:21;;;;;;;2.25;1.85;;;;;;;22.76;45.72;100857.31;16125175;19;129989;-66
2022/09/13 13:51:42;;;;;;;4.53;1.80;;;;;;;22.76;45.56;100857.31;16125350;19;129762;-66
2022/09/13 13:57:19;;;;;;;2.75;1.90;;;;;;;22.76;45.64;100846.16;16123574;19;130011;-66
2022/09/13 14:02:48;;;;;;;4.07;2.00;;;;;;;22.73;45.91;100861.47;16124062;19;135908;-66
2022/09/13 14:08:45;;;;;;;3.03;1.50;;;;;;;22.73;45.77;100862.34;16124115;19;129512;-66
2022/09/13 14:14:26;;;;;;;3.13;1.90;;;;;;;22.70;45.94;100848.94;16124186;19;129372;-66
2022/09/13 14:19:55;;;;;;;2.40;1.50;;;;;;;22.70;46.11;100854.50;16127553;19;129492;-66
2022/09/13 14:25:21;;;;;;;1.83;1.50;;;;;;;22.70;45.96;100851.72;16138623;19;129606;-66
2022/09/13 14:30:44;;;;;;;2.70;1.52;;;;;;;22.70;45.84;100862.06;16137681;19;129170;-67
2022/09/13 14:36:16;;;;;;;4.22;2.15;;;;;;;22.69;45.66;100869.56;16136831;19;129259;-67
2022/09/13 14:41:37;;;;;;;2.92;1.65;;;;;;;22.68;45.90;100867.06;16137609;19;128823;-67
2022/09/13 14:47:11;;;;;;;2.88;1.60;;;;;;;22.67;46.23;100874.56;16138568;19;129351;-67
2022/09/13 14:52:53;;;;;;;3.10;1.63;;;;;;;22.67;46.12;100882.94;16137662;19;129070;-67
2022/09/13 14:58:24;;;;;;;2.60;1.80;;;;;;;22.65;46.10;100868.44;16135298;19;129607;-67
2022/09/13 15:03:47;;;;;;;2.25;1.80;;;;;;;22.65;46.33;100867.59;16138022;19;129578;-67
2022/09/13 15:09:09;;;;;;;3.22;1.77;;;;;;;22.63;45.96;100859.53;16136190;19;129316;-68
2022/09/13 15:14:38;;;;;;;2.50;1.70;;;;;;;22.63;46.42;100861.47;16136097;19;129641;-67
2022/09/13 15:20:04;;;;;;;3.58;2.17;;;;;;;22.63;46.24;100865.09;16138373;19;129354;-67
2022/09/13 15:25:28;;;;;;;5.38;2.13;;;;;;;22.61;46.21;100853.38;16135101;19;130947;-67
2022/09/13 15:30:51;;;;;;;2.97;1.95;;;;;;;22.61;46.71;100856.16;16127806;19;129550;-66
2022/09/13 15:36:18;;;;;;;3.42;1.80;;;;;;;22.58;46.49;100846.41;16127850;19;129404;-62
2022/09/13 15:41:51;;;;;;;3.38;1.90;;;;;;;22.61;46.64;100845.03;16133126;19;130010;-68
2022/09/13 15:47:17;;;;;;;4.95;2.30;;;;;;;22.62;47.15;100849.47;16131843;19;129475;-62
2022/09/13 15:52:38;;;;;;;9.88;3.15;;;;;;;22.66;47.58;100836.66;16131699;19;130983;-62
2022/09/13 15:58:00;;;;;;;6.78;3.30;;;;;;;22.68;48.09;100834.41;16132136;19;129505;-62
2022/09/13 16:03:22;;;;;;;6.30;4.03;;;;;;;22.71;49.18;100821.88;16127105;19;129955;-62
2022/09/13 16:08:44;;;;;;;10.05;4.82;;;;;;;22.73;49.43;100825.22;16130344;19;129864;-62
2022/09/13 16:14:05;;;;;;;10.32;5.43;;;;;;;22.74;49.88;100822.19;16127134;19;130756;-62
2022/09/13 16:19:27;;;;;;;11.85;6.82;;;;;;;22.76;50.81;100824.69;16128452;19;129552;-62
2022/09/13 16:24:49;;;;;;;14.02;6.32;;;;;;;22.77;50.90;100811.59;16128529;19;129324;-62
2022/09/13 16:30:16;;;;;;;15.38;6.30;;;;;;;22.78;51.43;100808.50;16125797;19;128936;-62
2022/09/13 16:35:38;;;;;;;12.88;6.32;;;;;;;22.77;51.87;100780.91;16129105;19;129677;-63
2022/09/13 16:41:04;;;;;;;17.95;6.43;;;;;;;22.74;51.87;100794.28;16131140;19;129231;-63
2022/09/13 16:46:27;;;;;;;11.95;6.43;;;;;;;22.71;51.75;100806.00;16126026;19;128980;-63
2022/09/13 16:51:49;;;;;;;11.43;6.35;;;;;;;22.72;52.17;100804.88;16129397;19;129971;-63
2022/09/13 16:57:12;;;;;;;12.65;6.85;;;;;;;22.73;52.60;100798.19;16126236;19;130239;-64
2022/09/13 17:02:34;;;;;;;14.93;7.20;;;;;;;22.74;52.50;100804.59;16142249;19;129319;-62
2022/09/13 17:07:56;;;;;;;13.32;7.20;;;;;;;22.74;52.29;100802.66;16153590;19;129317;-63
2022/09/13 17:13:18;;;;;;;10.48;7.20;;;;;;;22.76;52.66;100801.53;16158945;19;129181;-63
2022/09/13 17:18:40;;;;;;;13.57;8.10;;;;;;;22.78;52.77;100796.50;16137995;19;129914;-64
2022/09/13 17:24:03;;;;;;;9.45;7.45;;;;;;;22.80;52.76;100802.63;16128948;19;129633;-65
2022/09/13 17:29:29;;;;;;;10.82;8.15;;;;;;;22.83;52.78;100804.88;16124312;19;129285;-65
2022/09/13 17:34:51;;;;;;;14.70;7.72;;;;;;;22.83;52.65;100813.25;16123182;19;129932;-61
2022/09/13 17:40:13;;;;;;;14.65;8.63;;;;;;;22.84;52.65;100809.34;16123149;19;129494;-63
2022/09/13 17:45:35;;;;;;;21.30;7.88;;;;;;;22.82;52.46;100800.41;16124984;19;129519;-63
2022/09/13 17:51:05;;;;;;;19.20;7.78;;;;;;;22.84;52.80;100798.19;16124914;19;129250;-62
2022/09/13 17:56:29;;;;;;;13.25;8.85;;;;;;;22.83;52.92;100788.16;16129296;19;129722;-63
2022/09/13 18:01:53;;;;;;;12.80;8.35;;;;;;;22.82;52.24;100784.53;16136808;19;129573;-64
2022/09/13 18:07:15;;;;;;;16.42;7.82;;;;;;;22.83;52.63;100793.72;16135612;19;130702;-63
2022/09/13 18:12:36;;;;;;;17.02;8.20;;;;;;;22.85;52.64;100788.72;16138948;19;129691;-63
2022/09/13 18:17:58;;;;;;;19.65;8.23;;;;;;;22.86;52.85;100796.78;16136679;19;129671;-64
2022/09/13 18:23:20;;;;;;;11.75;7.95;;;;;;;22.88;52.69;100790.94;16137336;19;129950;-63
2022/09/13 18:28:42;;;;;;;20.13;7.53;;;;;;;22.86;52.80;100790.38;16136394;19;129083;-63
2022/09/13 18:34:08;;;;;;;12.60;7.32;;;;;;;22.87;52.71;100780.91;16136890;19;129727;-62
2022/09/13 18:39:30;;;;;;;37.25;7.28;;;;;;;22.86;52.42;100787.59;16135153;19;129485;-63
2022/09/13 18:44:52;;;;;;;22.45;6.70;;;;;;;22.88;52.24;100790.94;16137594;19;129853;-62
2022/09/13 18:50:13;;;;;;;21.60;6.05;;;;;;;22.86;52.10;100793.19;16135811;19;129555;-64
2022/09/13 18:55:40;;;;;;;8.75;4.78;;;;;;;22.87;51.67;100780.91;16135712;19;129511;-63
2022/09/13 19:01:06;;;;;;;12.35;4.72;;;;;;;22.87;52.02;100786.47;16134528;19;130279;-63
2022/09/13 19:06:36;;;;;;;19.30;4.88;;;;;;;22.88;51.91;100799.31;16132016;19;130722;-63
2022/09/13 19:11:58;;;;;;;15.05;3.88;;;;;;;22.87;51.51;100808.81;16135308;19;129639;-66
2022/09/13 19:17:20;;;;;;;19.35;3.60;;;;;;;22.88;51.31;100816.88;16133088;19;129671;-63
2022/09/13 19:22:45;;;;;;;10.98;3.13;;;;;;;22.88;51.29;100813.25;16134640;19;129336;-63
2022/09/13 19:28:06;;;;;;;10.83;3.23;;;;;;;22.86;51.02;100823.84;16132429;19;129962;-62
2022/09/13 19:33:29;;;;;;;7.88;2.85;;;;;;;22.85;50.92;100828.59;16131780;19;129244;-63
2022/09/13 19:38:53;;;;;;;10.98;3.00;;;;;;;22.87;51.14;100828.31;16131535;19;130218;-64
2022/09/13 19:44:16;;;;;;;10.25;2.55;;;;;;;22.86;50.60;100829.44;16131197;19;130183;-63
2022/09/13 19:49:39;;;;;;;6.68;2.30;;;;;;;22.86;50.90;100827.47;16133149;19;129222;-65
2022/09/13 19:55:00;;;;;;;9.77;2.75;;;;;;;22.84;50.77;100815.75;16132018;19;129727;-64
2022/09/13 20:00:22;;;;;;;7.68;2.40;;;;;;;22.84;50.90;100814.94;16128548;19;131127;-64
2022/09/13 20:05:44;;;;;;;15.73;2.55;;;;;;;22.82;50.36;100817.16;16128816;19;129526;-64
2022/09/13 20:11:12;;;;;;;10.63;2.97;;;;;;;22.81;50.06;100821.06;16128421;19;130121;-64
2022/09/13 20:16:36;;;;;;;7.35;2.25;;;;;;;22.80;50.31;100813.78;16127139;19;129725;-62
2022/09/13 20:21:58;;;;;;;6.18;1.92;;;;;;;22.73;50.27;100809.34;16124627;19;130695;-65
2022/09/13 20:27:20;;;;;;;10.57;2.00;;;;;;;22.72;50.85;100816.03;16124190;19;129485;-66
2022/09/13 20:32:42;;;;;;;8.00;1.70;;;;;;;22.73;50.79;100814.91;16122817;19;131491;-64
2022/09/13 20:38:04;;;;;;;7.70;2.15;;;;;;;22.75;50.40;100828.56;16124809;19;129555;-61
2022/09/13 20:43:26;;;;;;;6.40;1.77;;;;;;;22.73;50.44;100831.66;16127428;19;129143;-60
2022/09/13 20:48:48;;;;;;;9.20;1.70;;;;;;;22.73;49.96;100831.66;16127936;19;129518;-59
2022/09/13 20:54:11;;;;;;;5.57;2.05;;;;;;;22.72;50.33;100829.97;16125721;19;129234;-61
2022/09/13 20:59:32;;;;;;;5.80;1.52;;;;;;;22.70;50.31;100832.19;16126782;19;129831;-61
2022/09/13 21:04:55;;;;;;;6.05;1.45;;;;;;;22.70;49.95;100842.53;16125235;19;129253;-60
2022/09/13 21:10:17;;;;;;;5.40;1.70;;;;;;;22.69;50.15;100835.28;16122501;19;130487;-60
2022/09/13 21:15:39;;;;;;;8.52;1.98;;;;;;;22.69;49.81;100821.34;16123756;19;129832;-60
2022/09/13 21:21:02;;;;;;;5.22;1.90;;;;;;;22.66;49.68;100803.19;16127357;19;129486;-60
2022/09/13 21:26:26;;;;;;;5.28;1.50;;;;;;;22.66;49.78;100796.78;16123505;19;129887;-61
2022/09/13 21:31:48;;;;;;;4.65;1.60;;;;;;;22.64;49.38;100797.06;16132918;19;130544;-61
2022/09/13 21:37:10;;;;;;;3.42;1.40;;;;;;;22.62;49.69;100788.13;16139773;19;129611;-60
2022/09/13 21:42:31;;;;;;;6.15;1.30;;;;;;;22.62;49.62;100788.13;16141015;19;129467;-61
2022/09/13 21:47:53;;;;;;;5.32;1.40;;;;;;;22.60;49.29;100776.44;16141199;19;129481;-61
2022/09/13 21:53:15;;;;;;;4.28;1.13;;;;;;;22.59;49.31;100775.56;16138004;19;129429;-61
2022/09/13 21:58:37;;;;;;;6.55;1.48;;;;;;;22.56;49.14;100762.22;16137682;19;130230;-61
2022/09/13 22:04:00;;;;;;;6.43;1.25;;;;;;;22.55;49.35;100751.31;16138591;19;129284;-61
2022/09/13 22:09:25;;;;;;;2.72;1.25;;;;;;;22.54;48.87;100766.38;16138022;19;129797;-62
2022/09/13 22:14:47;;;;;;;4.32;1.33;;;;;;;22.52;48.81;100768.63;16135765;19;129991;-61
2022/09/13 22:20:09;;;;;;;3.15;1.25;;;;;;;22.52;48.68;100771.41;16137874;19;129788;-61
2022/09/13 22:25:31;;;;;;;3.20;1.33;;;;;;;22.51;49.05;100766.94;16134241;19;129853;-60
2022/09/13 22:30:53;;;;;;;2.60;1.25;;;;;;;22.49;48.59;100758.84;16133930;19;129995;-62
2022/09/13 22:36:15;;;;;;;2.25;1.00;;;;;;;22.49;48.60;100769.16;16133807;19;129244;-61
2022/09/13 22:41:38;;;;;;;4.45;1.20;;;;;;;22.49;48.56;100769.16;16136853;19;130465;-61
2022/09/13 22:46:59;;;;;;;3.75;1.00;;;;;;;22.49;48.51;100760.81;16136631;19;129595;-61
2022/09/13 22:52:21;;;;;;;4.43;1.45;;;;;;;22.48;48.16;100765.53;16134261;19;131295;-61
2022/09/13 22:57:43;;;;;;;2.65;1.08;;;;;;;22.48;48.26;100764.69;16135654;19;129608;-61
2022/09/13 23:03:04;;;;;;;3.00;1.23;;;;;;;22.47;48.50;100757.44;16136283;19;130961;-61
2022/09/13 23:08:26;;;;;;;2.55;1.13;;;;;;;22.46;48.25;100747.41;16136704;19;129461;-61
2022/09/13 23:13:50;;;;;;;1.85;0.90;;;;;;;22.45;48.08;100735.44;16133574;19;129484;-61
2022/09/13 23:19:13;;;;;;;6.78;1.00;;;;;;;22.45;48.20;100746.59;16132707;19;130190;-60
2022/09/13 23:24:34;;;;;;;2.92;1.10;;;;;;;22.44;47.84;100758.84;16132294;19;129375;-61
2022/09/13 23:29:56;;;;;;;6.15;1.33;;;;;;;22.42;48.01;100747.97;16130918;19;131008;-61
2022/09/13 23:35:18;;;;;;;2.80;0.90;;;;;;;22.42;48.08;100759.09;16130769;19;129532;-61
2022/09/13 23:40:39;;;;;;;3.58;1.08;;;;;;;22.41;48.13;100740.72;16134207;19;129506;-61
2022/09/13 23:46:01;;;;;;;3.35;0.95;;;;;;;22.40;47.70;100750.19;16129548;19;130869;-61
2022/09/13 23:51:25;;;;;;;4.55;1.13;;;;;;;22.40;47.86;100735.41;16126263;19;129744;-61
2022/09/13 23:56:47;;;;;;;4.97;1.45;;;;;;;22.40;47.86;100732.63;16130295;19;130050;-61
